sensor_id;sensor_type;location;lat;lon;timestamp;temperature;humidity
48488;DHT22;34289;48.572;13.378;2023-09-12T00:01:05;15.20;99.90
48488;DHT22;34289;48.572;13.378;2023-09-12T00:03:31;15.70;99.90
48488;DHT22;34289;48.572;13.378;2023-09-12T00:05:59;15.30;99.90
48488;DHT22;34289;48.572;13.378;2023-09-12T00:08:25;15.40;99.90
48488;DHT22;34289;48.572;13.378;2023-09-12T00:11:03;15.30;99.90
48488;DHT22;34289;48.572;13.378;2023-09-12T00:13:30;15.30;99.90
48488;DHT22;34289;48.572;13.378;2023-09-12T00:15:56;15.40;99.90
48488;DHT22;34289;48.572;13.378;2023-09-12T00:18:21;15.00;99.90
48488;DHT22;34289;48.572;13.378;2023-09-12T00:20:47;15.00;99.90
48488;DHT22;34289;48.572;13.378;2023-09-12T00:23:12;14.90;99.90
48488;DHT22;34289;48.572;13.378;2023-09-12T00:25:38;15.50;99.90
48488;DHT22;34289;48.572;13.378;2023-09-12T00:28:04;15.10;99.90
48488;DHT22;34289;48.572;13.378;2023-09-12T00:30:29;15.20;99.90
48488;DHT22;34289;48.572;13.378;2023-09-12T00:32:55;15.30;99.90
48488;DHT22;34289;48.572;13.378;2023-09-12T00:35:20;15.30;99.90
48488;DHT22;34289;48.572;13.378;2023-09-12T00:37:46;15.30;99.90
48488;DHT22;34289;48.572;13.378;2023-09-12T00:40:12;15.30;99.90
48488;DHT22;34289;48.572;13.378;2023-09-12T00:42:37;15.30;99.90
48488;DHT22;34289;48.572;13.378;2023-09-12T00:45:03;15.20;99.90
48488;DHT22;34289;48.572;13.378;2023-09-12T00:47:29;15.10;99.90
48488;DHT22;34289;48.572;13.378;2023-09-12T00:49:56;15.10;99.90
48488;DHT22;34289;48.572;13.378;2023-09-12T00:52:26;15.00;99.90
48488;DHT22;34289;48.572;13.378;2023-09-12T00:54:53;14.80;99.90
48488;DHT22;34289;48.572;13.378;2023-09-12T00:57:20;15.20;99.90
48488;DHT22;34289;48.572;13.378;2023-09-12T00:59:48;14.70;99.90
48488;DHT22;34289;48.572;13.378;2023-09-12T01:02:14;14.60;99.90
48488;DHT22;34289;48.572;13.378;2023-09-12T01:04:41;15.10;99.90
48488;DHT22;34289;48.572;13.378;2023-09-12T01:07:07;14.60;99.90
48488;DHT22;34289;48.572;13.378;2023-09-12T01:09:33;14.40;99.90
48488;DHT22;34289;48.572;13.378;2023-09-12T01:12:00;14.40;99.90
48488;DHT22;34289;48.572;13.378;2023-09-12T01:14:28;14.40;99.90
48488;DHT22;34289;48.572;13.378;2023-09-12T01:16:54;14.70;99.90
48488;DHT22;34289;48.572;13.378;2023-09-12T01:19:20;14.50;99.90
48488;DHT22;34289;48.572;13.378;2023-09-12T01:27:41;14.50;99.90
48488;DHT22;34289;48.572;13.378;2023-09-12T01:30:09;14.50;99.90
48488;DHT22;34289;48.572;13.378;2023-09-12T01:32:35;14.70;99.90
48488;DHT22;34289;48.572;13.378;2023-09-12T01:35:02;14.90;99.90
48488;DHT22;34289;48.572;13.378;2023-09-12T01:37:31;15.10;99.90
48488;DHT22;34289;48.572;13.378;2023-09-12T01:39:57;14.90;99.90
48488;DHT22;34289;48.572;13.378;2023-09-12T01:42:23;14.90;99.90
48488;DHT22;34289;48.572;13.378;2023-09-12T01:44:50;14.70;99.90
48488;DHT22;34289;48.572;13.378;2023-09-12T01:47:20;14.30;99.90
48488;DHT22;34289;48.572;13.378;2023-09-12T01:49:48;14.20;99.90
48488;DHT22;34289;48.572;13.378;2023-09-12T01:52:15;14.20;99.90
48488;DHT22;34289;48.572;13.378;2023-09-12T01:54:42;14.20;99.90
48488;DHT22;34289;48.572;13.378;2023-09-12T01:57:10;14.60;99.90
48488;DHT22;34289;48.572;13.378;2023-09-12T01:59:36;14.50;99.90
48488;DHT22;34289;48.572;13.378;2023-09-12T02:02:02;14.40;99.90
48488;DHT22;34289;48.572;13.378;2023-09-12T02:04:28;14.30;99.90
48488;DHT22;34289;48.572;13.378;2023-09-12T02:06:53;14.80;99.90
48488;DHT22;34289;48.572;13.378;2023-09-12T02:09:19;14.10;99.90
48488;DHT22;34289;48.572;13.378;2023-09-12T02:11:45;14.10;99.90
48488;DHT22;34289;48.572;13.378;2023-09-12T02:14:10;14.20;99.90
48488;DHT22;34289;48.572;13.378;2023-09-12T02:16:37;14.30;99.90
48488;DHT22;34289;48.572;13.378;2023-09-12T02:19:03;14.60;99.90
48488;DHT22;34289;48.572;13.378;2023-09-12T02:21:29;14.30;99.90
48488;DHT22;34289;48.572;13.378;2023-09-12T02:23:55;14.30;99.90
48488;DHT22;34289;48.572;13.378;2023-09-12T02:26:20;14.20;99.90
48488;DHT22;34289;48.572;13.378;2023-09-12T02:28:46;14.30;99.90
48488;DHT22;34289;48.572;13.378;2023-09-12T02:31:12;13.90;99.90
48488;DHT22;34289;48.572;13.378;2023-09-12T02:33:38;14.30;99.90
48488;DHT22;34289;48.572;13.378;2023-09-12T02:36:04;14.00;99.90
48488;DHT22;34289;48.572;13.378;2023-09-12T02:38:30;14.20;99.90
48488;DHT22;34289;48.572;13.378;2023-09-12T02:40:56;14.10;99.90
48488;DHT22;34289;48.572;13.378;2023-09-12T02:43:22;14.20;99.90
48488;DHT22;34289;48.572;13.378;2023-09-12T02:45:47;14.20;99.90
48488;DHT22;34289;48.572;13.378;2023-09-12T02:48:13;14.50;99.90
48488;DHT22;34289;48.572;13.378;2023-09-12T02:50:38;13.80;99.90
48488;DHT22;34289;48.572;13.378;2023-09-12T02:53:04;14.10;99.90
48488;DHT22;34289;48.572;13.378;2023-09-12T02:55:30;13.70;99.90
48488;DHT22;34289;48.572;13.378;2023-09-12T02:57:55;13.40;99.90
48488;DHT22;34289;48.572;13.378;2023-09-12T03:00:22;13.60;99.90
48488;DHT22;34289;48.572;13.378;2023-09-12T03:02:47;13.60;99.90
48488;DHT22;34289;48.572;13.378;2023-09-12T03:05:13;13.40;99.90
48488;DHT22;34289;48.572;13.378;2023-09-12T03:07:39;13.60;99.90
48488;DHT22;34289;48.572;13.378;2023-09-12T03:10:05;14.10;99.90
48488;DHT22;34289;48.572;13.378;2023-09-12T03:12:30;13.80;99.90
48488;DHT22;34289;48.572;13.378;2023-09-12T03:14:56;13.80;99.90
48488;DHT22;34289;48.572;13.378;2023-09-12T03:17:22;14.30;99.90
48488;DHT22;34289;48.572;13.378;2023-09-12T03:19:48;13.80;99.90
48488;DHT22;34289;48.572;13.378;2023-09-12T03:22:13;13.80;99.90
48488;DHT22;34289;48.572;13.378;2023-09-12T03:24:39;14.00;99.90
48488;DHT22;34289;48.572;13.378;2023-09-12T03:27:04;13.80;99.90
48488;DHT22;34289;48.572;13.378;2023-09-12T03:29:30;14.10;99.90
48488;DHT22;34289;48.572;13.378;2023-09-12T03:31:56;14.20;99.90
48488;DHT22;34289;48.572;13.378;2023-09-12T03:34:21;13.60;99.90
48488;DHT22;34289;48.572;13.378;2023-09-12T03:36:47;13.50;99.90
48488;DHT22;34289;48.572;13.378;2023-09-12T03:39:12;13.30;99.90
48488;DHT22;34289;48.572;13.378;2023-09-12T03:41:39;13.60;99.90
48488;DHT22;34289;48.572;13.378;2023-09-12T03:44:05;13.40;99.90
48488;DHT22;34289;48.572;13.378;2023-09-12T03:46:30;13.30;99.90
48488;DHT22;34289;48.572;13.378;2023-09-12T03:48:56;13.30;99.90
48488;DHT22;34289;48.572;13.378;2023-09-12T03:51:21;13.90;99.90
48488;DHT22;34289;48.572;13.378;2023-09-12T03:53:47;13.10;99.90
48488;DHT22;34289;48.572;13.378;2023-09-12T03:56:15;13.50;99.90
48488;DHT22;34289;48.572;13.378;2023-09-12T03:58:41;13.60;99.90
48488;DHT22;34289;48.572;13.378;2023-09-12T04:01:07;13.30;99.90
48488;DHT22;34289;48.572;13.378;2023-09-12T04:03:32;13.50;99.90
48488;DHT22;34289;48.572;13.378;2023-09-12T04:05:58;13.40;99.90
48488;DHT22;34289;48.572;13.378;2023-09-12T04:08:24;13.70;99.90
48488;DHT22;34289;48.572;13.378;2023-09-12T04:10:49;13.50;99.90
48488;DHT22;34289;48.572;13.378;2023-09-12T04:13:15;13.90;99.90
48488;DHT22;34289;48.572;13.378;2023-09-12T04:15:40;13.80;99.90
48488;DHT22;34289;48.572;13.378;2023-09-12T04:18:06;13.40;99.90
48488;DHT22;34289;48.572;13.378;2023-09-12T04:20:32;13.50;99.90
48488;DHT22;34289;48.572;13.378;2023-09-12T04:23:00;14.10;99.90
48488;DHT22;34289;48.572;13.378;2023-09-12T04:25:25;13.50;99.90
48488;DHT22;34289;48.572;13.378;2023-09-12T04:27:52;13.30;99.90
48488;DHT22;34289;48.572;13.378;2023-09-12T04:30:17;13.30;99.90
48488;DHT22;34289;48.572;13.378;2023-09-12T04:32:43;13.00;99.90
48488;DHT22;34289;48.572;13.378;2023-09-12T04:35:08;13.10;99.90
48488;DHT22;34289;48.572;13.378;2023-09-12T04:37:35;13.20;99.90
48488;DHT22;34289;48.572;13.378;2023-09-12T04:40:00;13.70;99.90
48488;DHT22;34289;48.572;13.378;2023-09-12T04:42:26;13.40;99.90
48488;DHT22;34289;48.572;13.378;2023-09-12T04:44:51;13.30;99.90
48488;DHT22;34289;48.572;13.378;2023-09-12T04:47:17;13.70;99.90
48488;DHT22;34289;48.572;13.378;2023-09-12T04:49:44;13.90;99.90
48488;DHT22;34289;48.572;13.378;2023-09-12T04:52:09;13.30;99.90
48488;DHT22;34289;48.572;13.378;2023-09-12T04:54:35;13.40;99.90
48488;DHT22;34289;48.572;13.378;2023-09-12T04:57:02;13.30;99.90
48488;DHT22;34289;48.572;13.378;2023-09-12T04:59:27;13.30;99.90
48488;DHT22;34289;48.572;13.378;2023-09-12T05:01:53;13.70;99.90
48488;DHT22;34289;48.572;13.378;2023-09-12T05:04:18;13.80;99.90
48488;DHT22;34289;48.572;13.378;2023-09-12T05:06:45;13.40;99.90
48488;DHT22;34289;48.572;13.378;2023-09-12T05:09:10;13.50;99.90
48488;DHT22;34289;48.572;13.378;2023-09-12T05:11:36;13.50;99.90
48488;DHT22;34289;48.572;13.378;2023-09-12T05:14:02;13.80;99.90
48488;DHT22;34289;48.572;13.378;2023-09-12T05:16:31;13.40;99.90
48488;DHT22;34289;48.572;13.378;2023-09-12T05:18:56;13.60;99.90
48488;DHT22;34289;48.572;13.378;2023-09-12T05:21:22;13.30;99.90
48488;DHT22;34289;48.572;13.378;2023-09-12T05:23:48;13.20;99.90
48488;DHT22;34289;48.572;13.378;2023-09-12T05:26:13;13.90;99.90
48488;DHT22;34289;48.572;13.378;2023-09-12T05:28:39;13.60;99.90
48488;DHT22;34289;48.572;13.378;2023-09-12T05:31:04;13.90;99.90
48488;DHT22;34289;48.572;13.378;2023-09-12T05:33:30;14.10;99.90
48488;DHT22;34289;48.572;13.378;2023-09-12T05:35:56;14.20;99.90
48488;DHT22;34289;48.572;13.378;2023-09-12T05:38:21;14.20;99.90
48488;DHT22;34289;48.572;13.378;2023-09-12T05:40:48;14.20;99.90
48488;DHT22;34289;48.572;13.378;2023-09-12T05:43:15;14.30;99.90
48488;DHT22;34289;48.572;13.378;2023-09-12T05:45:41;14.90;99.90
48488;DHT22;34289;48.572;13.378;2023-09-12T05:48:07;15.20;99.90
48488;DHT22;34289;48.572;13.378;2023-09-12T05:50:36;14.90;99.90
48488;DHT22;34289;48.572;13.378;2023-09-12T05:53:01;14.90;99.90
48488;DHT22;34289;48.572;13.378;2023-09-12T05:55:27;14.70;99.90
48488;DHT22;34289;48.572;13.378;2023-09-12T05:57:53;15.00;99.90
48488;DHT22;34289;48.572;13.378;2023-09-12T06:00:19;15.00;99.90
48488;DHT22;34289;48.572;13.378;2023-09-12T06:02:45;15.20;99.90
48488;DHT22;34289;48.572;13.378;2023-09-12T06:05:11;15.20;99.90
48488;DHT22;34289;48.572;13.378;2023-09-12T06:07:36;15.90;99.90
48488;DHT22;34289;48.572;13.378;2023-09-12T06:10:04;15.50;99.90
48488;DHT22;34289;48.572;13.378;2023-09-12T06:12:30;15.60;99.90
48488;DHT22;34289;48.572;13.378;2023-09-12T06:14:58;15.80;99.90
48488;DHT22;34289;48.572;13.378;2023-09-12T06:17:24;16.60;99.90
48488;DHT22;34289;48.572;13.378;2023-09-12T06:19:50;16.50;99.90
48488;DHT22;34289;48.572;13.378;2023-09-12T06:22:16;17.60;99.90
48488;DHT22;34289;48.572;13.378;2023-09-12T06:24:43;17.80;99.90
48488;DHT22;34289;48.572;13.378;2023-09-12T06:27:09;18.30;99.90
48488;DHT22;34289;48.572;13.378;2023-09-12T06:29:35;18.90;99.90
48488;DHT22;34289;48.572;13.378;2023-09-12T06:32:00;19.30;99.90
48488;DHT22;34289;48.572;13.378;2023-09-12T06:34:27;19.60;99.90
48488;DHT22;34289;48.572;13.378;2023-09-12T06:36:53;20.00;99.90
48488;DHT22;34289;48.572;13.378;2023-09-12T06:39:19;20.00;99.90
48488;DHT22;34289;48.572;13.378;2023-09-12T06:41:44;20.10;99.90
48488;DHT22;34289;48.572;13.378;2023-09-12T06:44:10;20.40;99.90
48488;DHT22;34289;48.572;13.378;2023-09-12T06:46:36;20.70;99.90
48488;DHT22;34289;48.572;13.378;2023-09-12T06:49:03;20.60;99.90
48488;DHT22;34289;48.572;13.378;2023-09-12T06:51:29;20.70;99.90
48488;DHT22;34289;48.572;13.378;2023-09-12T06:53:54;20.60;99.90
48488;DHT22;34289;48.572;13.378;2023-09-12T06:56:20;20.60;99.90
48488;DHT22;34289;48.572;13.378;2023-09-12T06:58:47;20.70;99.90
48488;DHT22;34289;48.572;13.378;2023-09-12T07:01:13;20.70;99.90
48488;DHT22;34289;48.572;13.378;2023-09-12T07:03:38;20.80;99.90
48488;DHT22;34289;48.572;13.378;2023-09-12T07:06:04;21.10;99.90
48488;DHT22;34289;48.572;13.378;2023-09-12T07:08:31;21.10;99.90
48488;DHT22;34289;48.572;13.378;2023-09-12T07:10:57;21.40;99.90
48488;DHT22;34289;48.572;13.378;2023-09-12T07:13:24;21.30;99.90
48488;DHT22;34289;48.572;13.378;2023-09-12T07:15:50;21.20;99.90
48488;DHT22;34289;48.572;13.378;2023-09-12T07:18:16;21.20;99.90
48488;DHT22;34289;48.572;13.378;2023-09-12T07:20:42;20.90;99.90
48488;DHT22;34289;48.572;13.378;2023-09-12T07:23:08;21.00;99.90
48488;DHT22;34289;48.572;13.378;2023-09-12T07:25:41;21.20;99.90
48488;DHT22;34289;48.572;13.378;2023-09-12T07:28:07;21.30;99.90
48488;DHT22;34289;48.572;13.378;2023-09-12T07:30:33;21.70;99.90
48488;DHT22;34289;48.572;13.378;2023-09-12T07:32:59;22.00;99.90
48488;DHT22;34289;48.572;13.378;2023-09-12T07:35:24;21.80;99.90
48488;DHT22;34289;48.572;13.378;2023-09-12T07:37:50;22.20;99.90
48488;DHT22;34289;48.572;13.378;2023-09-12T07:40:16;22.40;99.90
48488;DHT22;34289;48.572;13.378;2023-09-12T07:42:41;22.70;99.90
48488;DHT22;34289;48.572;13.378;2023-09-12T07:45:08;22.90;99.90
48488;DHT22;34289;48.572;13.378;2023-09-12T07:47:33;23.30;99.90
48488;DHT22;34289;48.572;13.378;2023-09-12T07:49:59;23.20;99.90
48488;DHT22;34289;48.572;13.378;2023-09-12T07:52:26;23.50;99.90
48488;DHT22;34289;48.572;13.378;2023-09-12T07:54:52;23.60;99.90
48488;DHT22;34289;48.572;13.378;2023-09-12T07:57:23;23.70;99.90
48488;DHT22;34289;48.572;13.378;2023-09-12T07:59:48;23.80;99.90
48488;DHT22;34289;48.572;13.378;2023-09-12T08:02:14;24.00;99.90
48488;DHT22;34289;48.572;13.378;2023-09-12T08:04:40;24.10;99.90
48488;DHT22;34289;48.572;13.378;2023-09-12T08:07:05;24.20;99.90
48488;DHT22;34289;48.572;13.378;2023-09-12T08:09:53;24.30;99.90
48488;DHT22;34289;48.572;13.378;2023-09-12T08:12:22;24.40;99.90
48488;DHT22;34289;48.572;13.378;2023-09-12T08:14:48;24.60;99.90
48488;DHT22;34289;48.572;13.378;2023-09-12T08:17:14;24.80;99.90
48488;DHT22;34289;48.572;13.378;2023-09-12T08:19:40;25.10;99.90
48488;DHT22;34289;48.572;13.378;2023-09-12T08:22:07;25.20;99.90
48488;DHT22;34289;48.572;13.378;2023-09-12T08:24:34;25.30;99.90
48488;DHT22;34289;48.572;13.378;2023-09-12T08:27:00;25.40;99.90
48488;DHT22;34289;48.572;13.378;2023-09-12T08:29:29;25.40;99.90
48488;DHT22;34289;48.572;13.378;2023-09-12T08:31:54;25.40;99.90
48488;DHT22;34289;48.572;13.378;2023-09-12T08:34:21;25.70;99.90
48488;DHT22;34289;48.572;13.378;2023-09-12T08:36:46;25.90;99.90
48488;DHT22;34289;48.572;13.378;2023-09-12T08:39:14;26.10;99.90
48488;DHT22;34289;48.572;13.378;2023-09-12T08:41:44;26.10;99.90
48488;DHT22;34289;48.572;13.378;2023-09-12T08:44:12;26.10;99.90
48488;DHT22;34289;48.572;13.378;2023-09-12T08:46:39;26.40;99.90
48488;DHT22;34289;48.572;13.378;2023-09-12T08:49:06;26.90;99.90
48488;DHT22;34289;48.572;13.378;2023-09-12T08:51:32;26.70;99.90
48488;DHT22;34289;48.572;13.378;2023-09-12T08:53:58;26.70;99.90
48488;DHT22;34289;48.572;13.378;2023-09-12T08:56:23;26.60;99.90
48488;DHT22;34289;48.572;13.378;2023-09-12T08:58:51;26.10;99.90
48488;DHT22;34289;48.572;13.378;2023-09-12T09:01:18;26.20;99.90
48488;DHT22;34289;48.572;13.378;2023-09-12T09:03:44;26.80;99.90
48488;DHT22;34289;48.572;13.378;2023-09-12T09:06:11;27.10;99.90
48488;DHT22;34289;48.572;13.378;2023-09-12T09:08:38;27.30;99.90
48488;DHT22;34289;48.572;13.378;2023-09-12T09:11:04;27.30;99.90
48488;DHT22;34289;48.572;13.378;2023-09-12T09:13:32;26.90;99.90
48488;DHT22;34289;48.572;13.378;2023-09-12T09:16:18;27.00;99.90
48488;DHT22;34289;48.572;13.378;2023-09-12T09:18:58;27.20;99.90
48488;DHT22;34289;48.572;13.378;2023-09-12T09:21:27;27.20;99.90
48488;DHT22;34289;48.572;13.378;2023-09-12T09:23:54;27.40;99.90
48488;DHT22;34289;48.572;13.378;2023-09-12T09:26:20;27.60;99.90
48488;DHT22;34289;48.572;13.378;2023-09-12T09:29:01;27.90;99.90
48488;DHT22;34289;48.572;13.378;2023-09-12T09:31:27;28.00;99.90
48488;DHT22;34289;48.572;13.378;2023-09-12T09:33:53;28.20;99.90
48488;DHT22;34289;48.572;13.378;2023-09-12T09:36:20;28.20;99.90
48488;DHT22;34289;48.572;13.378;2023-09-12T09:38:46;28.30;99.90
48488;DHT22;34289;48.572;13.378;2023-09-12T09:41:11;28.30;99.90
48488;DHT22;34289;48.572;13.378;2023-09-12T09:43:37;28.40;99.90
48488;DHT22;34289;48.572;13.378;2023-09-12T09:46:03;28.50;99.90
48488;DHT22;34289;48.572;13.378;2023-09-12T09:48:28;28.70;99.90
48488;DHT22;34289;48.572;13.378;2023-09-12T09:51:01;28.60;99.90
48488;DHT22;34289;48.572;13.378;2023-09-12T09:53:28;28.60;99.90
48488;DHT22;34289;48.572;13.378;2023-09-12T09:56:14;28.70;99.90
48488;DHT22;34289;48.572;13.378;2023-09-12T09:59:07;29.00;99.90
48488;DHT22;34289;48.572;13.378;2023-09-12T10:01:34;29.20;99.90
48488;DHT22;34289;48.572;13.378;2023-09-12T10:04:01;29.30;99.90
48488;DHT22;34289;48.572;13.378;2023-09-12T10:06:27;29.50;99.90
48488;DHT22;34289;48.572;13.378;2023-09-12T10:08:54;29.30;99.90
48488;DHT22;34289;48.572;13.378;2023-09-12T10:11:24;29.20;99.90
48488;DHT22;34289;48.572;13.378;2023-09-12T10:13:54;29.00;99.90
48488;DHT22;34289;48.572;13.378;2023-09-12T10:16:38;29.00;99.90
48488;DHT22;34289;48.572;13.378;2023-09-12T10:19:12;29.10;99.90
48488;DHT22;34289;48.572;13.378;2023-09-12T10:24:11;29.30;99.90
48488;DHT22;34289;48.572;13.378;2023-09-12T10:26:38;29.60;99.90
48488;DHT22;34289;48.572;13.378;2023-09-12T10:29:08;29.80;99.90
48488;DHT22;34289;48.572;13.378;2023-09-12T10:31:35;29.90;99.90
48488;DHT22;34289;48.572;13.378;2023-09-12T10:34:02;30.00;99.90
48488;DHT22;34289;48.572;13.378;2023-09-12T10:36:29;30.10;99.90
48488;DHT22;34289;48.572;13.378;2023-09-12T10:38:55;30.10;99.90
48488;DHT22;34289;48.572;13.378;2023-09-12T10:41:24;30.30;99.90
48488;DHT22;34289;48.572;13.378;2023-09-12T10:43:53;30.40;99.90
48488;DHT22;34289;48.572;13.378;2023-09-12T10:46:18;30.20;99.90
48488;DHT22;34289;48.572;13.378;2023-09-12T10:48:44;30.00;99.90
48488;DHT22;34289;48.572;13.378;2023-09-12T10:51:11;30.00;99.90
48488;DHT22;34289;48.572;13.378;2023-09-12T10:53:38;29.70;99.90
48488;DHT22;34289;48.572;13.378;2023-09-12T10:56:18;29.70;99.90
48488;DHT22;34289;48.572;13.378;2023-09-12T11:01:44;29.30;99.90
48488;DHT22;34289;48.572;13.378;2023-09-12T11:06:47;29.50;99.90
48488;DHT22;34289;48.572;13.378;2023-09-12T11:09:16;29.30;99.90
48488;DHT22;34289;48.572;13.378;2023-09-12T11:11:49;29.10;99.90
48488;DHT22;34289;48.572;13.378;2023-09-12T11:14:19;29.00;99.90
48488;DHT22;34289;48.572;13.378;2023-09-12T11:17:21;29.00;99.90
48488;DHT22;34289;48.572;13.378;2023-09-12T11:19:51;28.90;99.90
48488;DHT22;34289;48.572;13.378;2023-09-12T11:22:22;29.10;99.90
48488;DHT22;34289;48.572;13.378;2023-09-12T11:24:48;29.10;99.90
48488;DHT22;34289;48.572;13.378;2023-09-12T11:27:14;29.30;99.90
48488;DHT22;34289;48.572;13.378;2023-09-12T11:29:40;29.40;99.90
48488;DHT22;34289;48.572;13.378;2023-09-12T11:32:07;29.40;99.90
48488;DHT22;34289;48.572;13.378;2023-09-12T11:34:41;29.20;99.90
48488;DHT22;34289;48.572;13.378;2023-09-12T11:37:08;29.20;99.90
48488;DHT22;34289;48.572;13.378;2023-09-12T11:39:36;29.00;99.90
48488;DHT22;34289;48.572;13.378;2023-09-12T11:42:03;29.40;99.90
48488;DHT22;34289;48.572;13.378;2023-09-12T11:44:30;29.30;99.90
48488;DHT22;34289;48.572;13.378;2023-09-12T11:46:58;29.40;99.90
48488;DHT22;34289;48.572;13.378;2023-09-12T11:49:35;29.40;99.90
48488;DHT22;34289;48.572;13.378;2023-09-12T11:52:01;29.50;99.90
48488;DHT22;34289;48.572;13.378;2023-09-12T11:54:29;29.50;99.90
48488;DHT22;34289;48.572;13.378;2023-09-12T11:56:57;29.40;99.90
48488;DHT22;34289;48.572;13.378;2023-09-12T11:59:25;28.60;99.90
48488;DHT22;34289;48.572;13.378;2023-09-12T12:01:52;29.40;99.90
48488;DHT22;34289;48.572;13.378;2023-09-12T12:04:20;29.40;99.90
48488;DHT22;34289;48.572;13.378;2023-09-12T12:06:47;29.30;99.90
48488;DHT22;34289;48.572;13.378;2023-09-12T12:09:13;29.30;99.90
48488;DHT22;34289;48.572;13.378;2023-09-12T12:11:41;29.50;99.90
48488;DHT22;34289;48.572;13.378;2023-09-12T12:14:17;29.60;99.90
48488;DHT22;34289;48.572;13.378;2023-09-12T12:16:46;29.70;99.90
48488;DHT22;34289;48.572;13.378;2023-09-12T12:19:12;29.60;99.90
48488;DHT22;34289;48.572;13.378;2023-09-12T12:21:42;29.40;99.90
48488;DHT22;34289;48.572;13.378;2023-09-12T12:24:10;29.30;99.90
48488;DHT22;34289;48.572;13.378;2023-09-12T12:26:36;29.30;99.90
48488;DHT22;34289;48.572;13.378;2023-09-12T12:29:02;29.40;99.90
48488;DHT22;34289;48.572;13.378;2023-09-12T12:31:28;29.40;99.90
48488;DHT22;34289;48.572;13.378;2023-09-12T12:33:54;29.40;99.90
48488;DHT22;34289;48.572;13.378;2023-09-12T12:36:21;29.30;99.90
48488;DHT22;34289;48.572;13.378;2023-09-12T12:38:48;29.30;99.90
48488;DHT22;34289;48.572;13.378;2023-09-12T12:41:25;29.30;99.90
48488;DHT22;34289;48.572;13.378;2023-09-12T12:43:52;29.50;99.90
48488;DHT22;34289;48.572;13.378;2023-09-12T12:46:18;29.70;99.90
48488;DHT22;34289;48.572;13.378;2023-09-12T12:48:50;29.90;99.90
48488;DHT22;34289;48.572;13.378;2023-09-12T12:51:21;29.90;99.90
48488;DHT22;34289;48.572;13.378;2023-09-12T12:53:52;29.90;99.90
48488;DHT22;34289;48.572;13.378;2023-09-12T12:56:22;29.90;99.90
48488;DHT22;34289;48.572;13.378;2023-09-12T12:58:54;29.80;99.90
48488;DHT22;34289;48.572;13.378;2023-09-12T13:01:21;30.00;99.90
48488;DHT22;34289;48.572;13.378;2023-09-12T13:03:47;29.90;99.90
48488;DHT22;34289;48.572;13.378;2023-09-12T13:06:15;29.70;99.90
48488;DHT22;34289;48.572;13.378;2023-09-12T13:08:43;29.60;99.90
48488;DHT22;34289;48.572;13.378;2023-09-12T13:11:10;29.50;99.90
48488;DHT22;34289;48.572;13.378;2023-09-12T13:13:37;29.40;99.90
48488;DHT22;34289;48.572;13.378;2023-09-12T13:16:07;29.50;99.90
48488;DHT22;34289;48.572;13.378;2023-09-12T13:18:38;29.30;99.90
48488;DHT22;34289;48.572;13.378;2023-09-12T13:21:04;29.30;99.90
48488;DHT22;34289;48.572;13.378;2023-09-12T13:23:33;29.20;99.90
48488;DHT22;34289;48.572;13.378;2023-09-12T13:25:59;29.60;99.90
48488;DHT22;34289;48.572;13.378;2023-09-12T13:28:25;29.20;99.90
48488;DHT22;34289;48.572;13.378;2023-09-12T13:30:53;29.10;99.90
48488;DHT22;34289;48.572;13.378;2023-09-12T13:33:19;29.10;99.90
48488;DHT22;34289;48.572;13.378;2023-09-12T13:35:46;29.20;99.90
48488;DHT22;34289;48.572;13.378;2023-09-12T13:38:11;29.10;99.90
48488;DHT22;34289;48.572;13.378;2023-09-12T13:40:38;29.10;99.90
48488;DHT22;34289;48.572;13.378;2023-09-12T13:43:07;29.00;99.90
48488;DHT22;34289;48.572;13.378;2023-09-12T13:45:33;28.70;99.90
48488;DHT22;34289;48.572;13.378;2023-09-12T13:48:00;28.80;99.90
48488;DHT22;34289;48.572;13.378;2023-09-12T13:50:26;28.20;99.90
48488;DHT22;34289;48.572;13.378;2023-09-12T13:52:54;28.20;99.90
48488;DHT22;34289;48.572;13.378;2023-09-12T13:55:22;27.80;99.90
48488;DHT22;34289;48.572;13.378;2023-09-12T13:57:47;28.10;99.90
48488;DHT22;34289;48.572;13.378;2023-09-12T14:00:13;27.70;99.90
48488;DHT22;34289;48.572;13.378;2023-09-12T14:02:39;28.30;99.90
48488;DHT22;34289;48.572;13.378;2023-09-12T14:05:05;28.20;99.90
48488;DHT22;34289;48.572;13.378;2023-09-12T14:07:31;28.10;99.90
48488;DHT22;34289;48.572;13.378;2023-09-12T14:09:56;28.00;99.90
48488;DHT22;34289;48.572;13.378;2023-09-12T14:12:23;28.00;99.90
48488;DHT22;34289;48.572;13.378;2023-09-12T14:14:49;28.00;99.90
48488;DHT22;34289;48.572;13.378;2023-09-12T14:17:15;27.90;99.90
48488;DHT22;34289;48.572;13.378;2023-09-12T14:19:40;27.70;99.90
48488;DHT22;34289;48.572;13.378;2023-09-12T14:22:06;27.70;99.90
48488;DHT22;34289;48.572;13.378;2023-09-12T14:24:31;27.60;99.90
48488;DHT22;34289;48.572;13.378;2023-09-12T14:26:57;27.70;99.90
48488;DHT22;34289;48.572;13.378;2023-09-12T14:29:23;27.60;99.90
48488;DHT22;34289;48.572;13.378;2023-09-12T14:31:49;27.60;99.90
48488;DHT22;34289;48.572;13.378;2023-09-12T14:34:16;27.60;99.90
48488;DHT22;34289;48.572;13.378;2023-09-12T14:36:42;27.70;99.90
48488;DHT22;34289;48.572;13.378;2023-09-12T14:39:07;28.00;99.90
48488;DHT22;34289;48.572;13.378;2023-09-12T14:41:33;28.00;99.90
48488;DHT22;34289;48.572;13.378;2023-09-12T14:43:59;28.20;99.90
48488;DHT22;34289;48.572;13.378;2023-09-12T14:46:24;28.30;99.90
48488;DHT22;34289;48.572;13.378;2023-09-12T14:48:50;28.50;99.90
48488;DHT22;34289;48.572;13.378;2023-09-12T14:51:15;28.60;99.90
48488;DHT22;34289;48.572;13.378;2023-09-12T14:53:41;28.80;99.90
48488;DHT22;34289;48.572;13.378;2023-09-12T14:56:12;29.00;99.90
48488;DHT22;34289;48.572;13.378;2023-09-12T14:58:38;29.10;99.90
48488;DHT22;34289;48.572;13.378;2023-09-12T15:01:04;29.20;99.90
48488;DHT22;34289;48.572;13.378;2023-09-12T15:03:30;29.10;99.90
48488;DHT22;34289;48.572;13.378;2023-09-12T15:05:56;28.90;99.90
48488;DHT22;34289;48.572;13.378;2023-09-12T15:08:21;28.80;99.90
48488;DHT22;34289;48.572;13.378;2023-09-12T15:10:47;28.70;99.90
48488;DHT22;34289;48.572;13.378;2023-09-12T15:13:13;28.50;99.90
48488;DHT22;34289;48.572;13.378;2023-09-12T15:15:39;28.40;99.90
48488;DHT22;34289;48.572;13.378;2023-09-12T15:18:05;28.40;99.90
48488;DHT22;34289;48.572;13.378;2023-09-12T15:20:32;28.30;99.90
48488;DHT22;34289;48.572;13.378;2023-09-12T15:22:57;28.10;99.90
48488;DHT22;34289;48.572;13.378;2023-09-12T15:25:23;27.80;99.90
48488;DHT22;34289;48.572;13.378;2023-09-12T15:27:49;27.80;99.90